Terminal Aerodrome Forecast
Issued by NWS

Home | Current Version | Previous Version | Graphics & Text | Print | Product List | Glossary On
Versions: 1 2 3 4 5 6 7 8 9 10 11 12 13 14 15 16 17
000
FTUS43 KTOP 272300
TAFFOE
TAF
KFOE 272334Z 2800/2824 09010KT P6SM FEW060 BKN120
     FM280900 13008KT P6SM VCTS BKN080CB
     FM281300 17008KT P6SM FEW060 BKN120=

USA.gov is the U.S. government's official web portal to all federal, state and local government web resources and services.